EST,Max TemperatureF,Mean TemperatureF,Min TemperatureF,Max Dew PointF,MeanDew PointF,Min DewpointF,Max Humidity, Mean Humidity, Min Humidity, Max Sea Level PressureIn, Mean Sea Level PressureIn, Min Sea Level PressureIn, Max VisibilityMiles, Mean VisibilityMiles, Min VisibilityMiles, Max Wind SpeedMPH, Mean Wind SpeedMPH, Max Gust SpeedMPH,PrecipitationIn, CloudCover, Events, WindDirDegrees
2013-2-1,68,50,32,41,33,25,100,65,20,30.39,30.31,30.27,10,9,5,12,2,16,0.00,0,,349
2013-2-2,69,50,32,41,35,28,100,62,21,30.36,30.27,30.18,10,9,5,7,1,,0.00,0,,42
2013-2-3,69,50,32,50,38,30,100,70,25,30.21,30.16,30.09,10,10,10,9,2,,0.00,1,,308
2013-2-4,68,50,32,45,35,32,100,66,26,30.16,30.12,30.07,10,10,7,6,1,,0.00,0,,118
2013-2-5,77,54,32,50,42,32,100,71,34,30.13,30.07,30.02,10,10,10,7,1,,0.00,2,,245
2013-2-6,71,62,53,61,55,50,94,74,53,30.15,30.09,30.06,10,10,10,6,1,,0.00,8,,58
2013-2-7,80,66,53,64,60,54,100,79,45,30.10,29.99,29.86,10,9,0,17,4,26,0.07,4,Fog-Rain-Thunderstorm,181
2013-2-8,75,63,51,64,57,50,100,80,53,30.11,30.02,29.92,10,9,1,8,3,,0.00,3,,286
2013-2-9,73,60,46,52,50,46,100,75,44,30.24,30.18,30.11,10,9,2,10,4,,0.00,1,,46
2013-2-10,80,64,48,57,53,46,100,68,42,30.29,30.22,30.16,10,10,7,15,3,20,0.00,2,,133
2013-2-11,82,66,51,63,59,52,100,77,42,30.22,30.16,30.09,10,9,1,16,4,22,0.00,2,,187
2013-2-12,84,70,55,68,62,55,100,81,45,30.11,30.03,29.95,10,6,0,15,3,21,0.00,6,Fog,208
2013-2-13,80,71,62,70,66,61,100,91,65,29.99,29.92,29.86,10,8,4,15,6,24,0.16,8,Rain-Thunderstorm,213
2013-2-14,62,56,51,61,56,52,100,93,72,30.10,30.02,29.96,10,9,4,10,2,,0.24,8,Rain,10
2013-2-15,68,57,46,52,45,34,100,75,28,30.12,30.05,29.98,10,10,10,8,4,,0.00,3,,19
2013-2-16,62,52,41,46,39,21,100,70,39,30.19,30.02,29.97,10,10,7,12,2,23,0.00,2,Rain,311
2013-2-17,53,42,32,28,20,10,87,47,19,30.38,30.30,30.19,10,10,7,14,5,20,0.00,0,,354
2013-2-18,68,47,26,45,33,21,100,63,30,30.41,30.33,30.24,10,10,10,12,2,18,0.00,1,,117
2013-2-19,77,59,41,55,49,39,100,71,39,30.26,30.16,30.09,10,10,7,15,2,22,0.00,2,,216
2013-2-20,73,63,51,61,52,43,100,69,43,30.18,30.12,30.06,10,10,7,12,3,,0.01,4,Rain,23
2013-2-21,82,64,46,61,54,46,100,75,39,30.15,30.07,30.01,10,10,7,9,1,,0.00,3,,125
2013-2-22,86,72,57,64,62,57,100,77,40,30.10,30.05,29.99,10,10,3,14,3,18,0.00,3,,171
2013-2-23,86,75,64,68,65,63,100,81,45,30.02,29.96,29.91,10,9,5,18,3,24,0.00,4,,213
2013-2-24,77,72,68,70,67,63,100,88,65,29.99,29.94,29.89,10,8,2,7,3,,0.11,6,Rain,192
2013-2-25,86,75,64,68,63,55,100,77,37,29.94,29.86,29.78,10,9,0,14,5,21,0.00,6,Fog,152
2013-2-26,75,68,60,72,64,57,100,87,57,29.89,29.80,29.72,10,8,2,18,5,22,0.49,6,Rain-Thunderstorm,201
2013-2-27,71,60,50,59,50,45,88,68,38,30.01,29.96,29.89,10,10,10,8,3,,0.00,1,,296
2013-2-28,71,56,41,52,46,41,100,72,38,30.03,29.98,29.93,10,10,5,9,2,21,0.00,1,,283